Millinocket, Millinocket Municipal Airport (KMLT)

NameMillinocket Municipal Airport
CityMillinocket
CountryUnited States
ICAOKMLT
IATAMLT
Altitude124 m
CoordinatesGoogle Map
Live Air TrafficLiveATC.net
METARKMLT 132353Z AUTO 00000KT 10SM CLR 08/05 A3003 RMK AO2 SLP175 T00780050 10178 20078 52010
2019-10-13 23:53:00 Wind: North (0°) 0 m/s - Visibility: 16093.4 m - Temperature: 8 °C - Dew point: 5 °C - Humidity: 81.6% - Pressure: 1016.93 hPa

Sorry, no flights used the airport in this database.